Tesouro, Brazil
Current Conditions -  °F | °C
As of 9:00 PM on Wednesday 28 Jan 2015 (Local Time) from SBCY Reporting Station
Scattered Clouds Scattered Clouds  
Wind Chill: 75°   Ceiling: Unl
Heat Index: 75°   Visibility: 6mi
Dew Point: 72°   Wind: 6mph
Humidity: 89%   Direction: 340°NNW
Pressure: 29.91"   Gusts: NA
Location:  16.08°S, 53.55°W
Report Text: SBCY 290000Z 34005KT 9999 FEW020 SCT100 24/22 Q1013
Loading
Personal Weather Stations






























Interactive Weather Map New forecast layout! Learn more

10-Day Weather Forecast

Advertisements
Track Severe Weather on mobile